sensor_id;sensor_type;location;lat;lon;timestamp;temperature;humidity
66710;DHT22;53624;0.000;0.000;2022-11-03T00:01:32;16.70;99.90
66710;DHT22;53624;0.000;0.000;2022-11-03T00:04:01;16.70;99.90
66710;DHT22;53624;0.000;0.000;2022-11-03T00:06:28;16.70;99.90
66710;DHT22;53624;0.000;0.000;2022-11-03T00:08:56;16.70;99.90
66710;DHT22;53624;0.000;0.000;2022-11-03T00:11:24;16.70;99.90
66710;DHT22;53624;0.000;0.000;2022-11-03T00:13:51;16.70;99.90
66710;DHT22;53624;0.000;0.000;2022-11-03T00:16:19;16.70;99.90
66710;DHT22;53624;0.000;0.000;2022-11-03T00:18:46;16.70;99.90
66710;DHT22;53624;0.000;0.000;2022-11-03T00:21:15;16.60;99.90
66710;DHT22;53624;0.000;0.000;2022-11-03T00:23:43;16.60;99.90
66710;DHT22;53624;0.000;0.000;2022-11-03T00:26:11;16.60;99.90
66710;DHT22;53624;0.000;0.000;2022-11-03T00:28:39;16.60;99.90
66710;DHT22;53624;0.000;0.000;2022-11-03T00:31:08;16.60;99.90
66710;DHT22;53624;0.000;0.000;2022-11-03T00:33:36;16.60;99.90
66710;DHT22;53624;0.000;0.000;2022-11-03T00:36:04;16.60;99.90
66710;DHT22;53624;0.000;0.000;2022-11-03T00:38:33;16.60;99.90
66710;DHT22;53624;0.000;0.000;2022-11-03T00:41:02;16.50;99.90
66710;DHT22;53624;0.000;0.000;2022-11-03T00:43:31;16.50;99.90
66710;DHT22;53624;0.000;0.000;2022-11-03T00:45:58;16.50;99.90
66710;DHT22;53624;0.000;0.000;2022-11-03T00:48:26;16.50;99.90
66710;DHT22;53624;0.000;0.000;2022-11-03T00:51:01;16.50;99.90
66710;DHT22;53624;0.000;0.000;2022-11-03T00:53:28;16.50;99.90
66710;DHT22;53624;0.000;0.000;2022-11-03T00:55:58;16.50;99.90
66710;DHT22;53624;0.000;0.000;2022-11-03T00:58:25;16.50;99.90
66710;DHT22;53624;0.000;0.000;2022-11-03T01:01:03;16.50;99.90
66710;DHT22;53624;0.000;0.000;2022-11-03T01:03:31;16.40;99.90
66710;DHT22;53624;0.000;0.000;2022-11-03T01:05:58;16.40;99.90
66710;DHT22;53624;0.000;0.000;2022-11-03T01:08:43;16.40;99.90
66710;DHT22;53624;0.000;0.000;2022-11-03T01:11:13;16.40;99.90
66710;DHT22;53624;0.000;0.000;2022-11-03T01:13:58;16.40;99.90
66710;DHT22;53624;0.000;0.000;2022-11-03T01:16:26;16.40;99.90
66710;DHT22;53624;0.000;0.000;2022-11-03T01:18:53;16.40;99.90
66710;DHT22;53624;0.000;0.000;2022-11-03T01:21:21;16.40;99.90
66710;DHT22;53624;0.000;0.000;2022-11-03T01:23:49;16.40;99.90
66710;DHT22;53624;0.000;0.000;2022-11-03T01:26:17;16.40;99.90
66710;DHT22;53624;0.000;0.000;2022-11-03T01:28:46;16.40;99.90
66710;DHT22;53624;0.000;0.000;2022-11-03T01:31:14;16.30;99.90
66710;DHT22;53624;0.000;0.000;2022-11-03T01:33:42;16.30;99.90
66710;DHT22;53624;0.000;0.000;2022-11-03T01:36:10;16.30;99.90
66710;DHT22;53624;0.000;0.000;2022-11-03T01:38:38;16.30;99.90
66710;DHT22;53624;0.000;0.000;2022-11-03T01:41:06;16.30;99.90
66710;DHT22;53624;0.000;0.000;2022-11-03T01:43:37;16.30;99.90
66710;DHT22;53624;0.000;0.000;2022-11-03T01:46:06;16.30;99.90
66710;DHT22;53624;0.000;0.000;2022-11-03T01:48:35;16.30;99.90
66710;DHT22;53624;0.000;0.000;2022-11-03T01:51:03;16.30;99.90
66710;DHT22;53624;0.000;0.000;2022-11-03T01:53:32;16.30;99.90
66710;DHT22;53624;0.000;0.000;2022-11-03T01:56:00;16.30;99.90
66710;DHT22;53624;0.000;0.000;2022-11-03T01:58:29;16.20;99.90
66710;DHT22;53624;0.000;0.000;2022-11-03T02:00:58;16.20;99.90
66710;DHT22;53624;0.000;0.000;2022-11-03T02:03:28;16.20;99.90
66710;DHT22;53624;0.000;0.000;2022-11-03T02:05:57;16.20;99.90
66710;DHT22;53624;0.000;0.000;2022-11-03T02:08:27;16.20;99.90
66710;DHT22;53624;0.000;0.000;2022-11-03T02:10:55;16.20;99.90
66710;DHT22;53624;0.000;0.000;2022-11-03T02:13:24;16.20;99.90
66710;DHT22;53624;0.000;0.000;2022-11-03T02:15:52;16.10;99.90
66710;DHT22;53624;0.000;0.000;2022-11-03T02:18:23;16.10;99.90
66710;DHT22;53624;0.000;0.000;2022-11-03T02:20:53;16.10;99.90
66710;DHT22;53624;0.000;0.000;2022-11-03T02:23:25;16.10;99.90
66710;DHT22;53624;0.000;0.000;2022-11-03T02:25:55;16.10;99.90
66710;DHT22;53624;0.000;0.000;2022-11-03T02:28:23;16.10;99.90
66710;DHT22;53624;0.000;0.000;2022-11-03T02:30:55;16.10;99.90
66710;DHT22;53624;0.000;0.000;2022-11-03T02:33:40;16.10;99.90
66710;DHT22;53624;0.000;0.000;2022-11-03T02:36:11;16.10;99.90
66710;DHT22;53624;0.000;0.000;2022-11-03T02:38:41;16.10;99.90
66710;DHT22;53624;0.000;0.000;2022-11-03T02:41:11;16.10;99.90
66710;DHT22;53624;0.000;0.000;2022-11-03T02:43:39;16.00;99.90
66710;DHT22;53624;0.000;0.000;2022-11-03T02:46:07;16.00;99.90
66710;DHT22;53624;0.000;0.000;2022-11-03T02:48:35;16.00;99.90
66710;DHT22;53624;0.000;0.000;2022-11-03T02:51:02;16.00;99.90
66710;DHT22;53624;0.000;0.000;2022-11-03T02:53:30;16.00;99.90
66710;DHT22;53624;0.000;0.000;2022-11-03T02:56:02;16.00;99.90
66710;DHT22;53624;0.000;0.000;2022-11-03T02:58:34;16.00;99.90
66710;DHT22;53624;0.000;0.000;2022-11-03T03:01:06;16.00;99.90
66710;DHT22;53624;0.000;0.000;2022-11-03T03:03:44;16.00;99.90
66710;DHT22;53624;0.000;0.000;2022-11-03T03:06:15;16.00;99.90
66710;DHT22;53624;0.000;0.000;2022-11-03T03:08:46;15.90;99.90
66710;DHT22;53624;0.000;0.000;2022-11-03T03:11:16;16.00;99.90
66710;DHT22;53624;0.000;0.000;2022-11-03T03:14:04;15.90;99.90
66710;DHT22;53624;0.000;0.000;2022-11-03T03:16:32;15.90;99.90
66710;DHT22;53624;0.000;0.000;2022-11-03T03:19:02;15.90;99.90
66710;DHT22;53624;0.000;0.000;2022-11-03T03:21:31;15.90;99.90
66710;DHT22;53624;0.000;0.000;2022-11-03T03:24:00;15.90;99.90
66710;DHT22;53624;0.000;0.000;2022-11-03T03:26:29;15.90;99.90
66710;DHT22;53624;0.000;0.000;2022-11-03T03:29:00;15.90;99.90
66710;DHT22;53624;0.000;0.000;2022-11-03T03:31:31;15.90;99.90
66710;DHT22;53624;0.000;0.000;2022-11-03T03:34:00;15.90;99.90
66710;DHT22;53624;0.000;0.000;2022-11-03T03:36:28;15.90;99.90
66710;DHT22;53624;0.000;0.000;2022-11-03T03:38:57;15.90;99.90
66710;DHT22;53624;0.000;0.000;2022-11-03T03:41:27;15.80;99.90
66710;DHT22;53624;0.000;0.000;2022-11-03T03:43:57;15.80;99.90
66710;DHT22;53624;0.000;0.000;2022-11-03T03:46:26;15.80;99.90
66710;DHT22;53624;0.000;0.000;2022-11-03T03:48:56;15.80;99.90
66710;DHT22;53624;0.000;0.000;2022-11-03T03:51:24;15.80;99.90
66710;DHT22;53624;0.000;0.000;2022-11-03T03:53:53;15.80;99.90
66710;DHT22;53624;0.000;0.000;2022-11-03T03:56:22;15.80;99.90
66710;DHT22;53624;0.000;0.000;2022-11-03T03:58:52;15.80;99.90
66710;DHT22;53624;0.000;0.000;2022-11-03T04:01:19;15.80;99.90
66710;DHT22;53624;0.000;0.000;2022-11-03T04:03:47;15.80;99.90
66710;DHT22;53624;0.000;0.000;2022-11-03T04:06:16;15.80;99.90
66710;DHT22;53624;0.000;0.000;2022-11-03T04:08:43;15.80;99.90
66710;DHT22;53624;0.000;0.000;2022-11-03T04:11:10;15.80;99.90
66710;DHT22;53624;0.000;0.000;2022-11-03T04:13:55;15.80;99.90
66710;DHT22;53624;0.000;0.000;2022-11-03T04:16:40;15.80;99.90
66710;DHT22;53624;0.000;0.000;2022-11-03T04:19:25;15.80;99.90
66710;DHT22;53624;0.000;0.000;2022-11-03T04:22:07;15.80;99.90
66710;DHT22;53624;0.000;0.000;2022-11-03T04:24:44;15.80;99.90
66710;DHT22;53624;0.000;0.000;2022-11-03T04:27:17;15.80;99.90
66710;DHT22;53624;0.000;0.000;2022-11-03T04:29:46;15.80;99.90
66710;DHT22;53624;0.000;0.000;2022-11-03T04:32:14;15.70;99.90
66710;DHT22;53624;0.000;0.000;2022-11-03T04:34:42;15.80;99.90
66710;DHT22;53624;0.000;0.000;2022-11-03T04:37:12;15.80;99.90
66710;DHT22;53624;0.000;0.000;2022-11-03T04:39:40;15.70;99.90
66710;DHT22;53624;0.000;0.000;2022-11-03T04:42:11;15.70;99.90
66710;DHT22;53624;0.000;0.000;2022-11-03T04:44:41;15.70;99.90
66710;DHT22;53624;0.000;0.000;2022-11-03T04:47:10;15.70;99.90
66710;DHT22;53624;0.000;0.000;2022-11-03T04:49:37;15.70;99.90
66710;DHT22;53624;0.000;0.000;2022-11-03T04:52:07;15.70;99.90
66710;DHT22;53624;0.000;0.000;2022-11-03T04:54:41;15.70;99.90
66710;DHT22;53624;0.000;0.000;2022-11-03T04:57:10;15.70;99.90
66710;DHT22;53624;0.000;0.000;2022-11-03T04:59:38;15.70;99.90
66710;DHT22;53624;0.000;0.000;2022-11-03T05:02:08;15.70;99.90
66710;DHT22;53624;0.000;0.000;2022-11-03T05:04:36;15.70;99.90
66710;DHT22;53624;0.000;0.000;2022-11-03T05:07:04;15.70;99.90
66710;DHT22;53624;0.000;0.000;2022-11-03T05:09:35;15.70;99.90
66710;DHT22;53624;0.000;0.000;2022-11-03T05:12:06;15.70;99.90
66710;DHT22;53624;0.000;0.000;2022-11-03T05:14:34;15.70;99.90
66710;DHT22;53624;0.000;0.000;2022-11-03T05:17:05;15.60;99.90
66710;DHT22;53624;0.000;0.000;2022-11-03T05:19:34;15.60;99.90
66710;DHT22;53624;0.000;0.000;2022-11-03T05:22:03;15.60;99.90
66710;DHT22;53624;0.000;0.000;2022-11-03T05:24:31;15.60;99.90
66710;DHT22;53624;0.000;0.000;2022-11-03T05:26:59;15.60;99.90
66710;DHT22;53624;0.000;0.000;2022-11-03T05:29:29;15.60;99.90
66710;DHT22;53624;0.000;0.000;2022-11-03T05:31:58;15.60;99.90
66710;DHT22;53624;0.000;0.000;2022-11-03T05:34:34;15.60;99.90
66710;DHT22;53624;0.000;0.000;2022-11-03T05:37:07;15.60;99.90
66710;DHT22;53624;0.000;0.000;2022-11-03T05:39:40;15.60;99.90
66710;DHT22;53624;0.000;0.000;2022-11-03T05:42:14;15.60;99.90
66710;DHT22;53624;0.000;0.000;2022-11-03T05:44:48;15.60;99.90
66710;DHT22;53624;0.000;0.000;2022-11-03T05:47:17;15.60;99.90
66710;DHT22;53624;0.000;0.000;2022-11-03T05:49:46;15.60;99.90
66710;DHT22;53624;0.000;0.000;2022-11-03T05:52:14;15.60;99.90
66710;DHT22;53624;0.000;0.000;2022-11-03T05:54:44;15.50;99.90
66710;DHT22;53624;0.000;0.000;2022-11-03T05:57:12;15.60;99.90
66710;DHT22;53624;0.000;0.000;2022-11-03T05:59:40;15.50;99.90
66710;DHT22;53624;0.000;0.000;2022-11-03T06:02:15;15.50;99.90
66710;DHT22;53624;0.000;0.000;2022-11-03T06:04:47;15.60;99.90
66710;DHT22;53624;0.000;0.000;2022-11-03T06:07:17;15.50;99.90
66710;DHT22;53624;0.000;0.000;2022-11-03T06:09:47;15.50;99.90
66710;DHT22;53624;0.000;0.000;2022-11-03T06:12:15;15.50;99.90
66710;DHT22;53624;0.000;0.000;2022-11-03T06:14:44;15.50;99.90
66710;DHT22;53624;0.000;0.000;2022-11-03T06:17:17;15.50;99.90
66710;DHT22;53624;0.000;0.000;2022-11-03T06:19:46;15.50;99.90
66710;DHT22;53624;0.000;0.000;2022-11-03T06:22:15;15.50;99.90
66710;DHT22;53624;0.000;0.000;2022-11-03T06:24:45;15.50;99.90
66710;DHT22;53624;0.000;0.000;2022-11-03T06:27:13;15.50;99.90
66710;DHT22;53624;0.000;0.000;2022-11-03T06:29:42;15.50;99.90
66710;DHT22;53624;0.000;0.000;2022-11-03T06:32:14;15.50;99.90
66710;DHT22;53624;0.000;0.000;2022-11-03T06:34:42;15.50;99.90
66710;DHT22;53624;0.000;0.000;2022-11-03T06:37:18;15.50;99.90
66710;DHT22;53624;0.000;0.000;2022-11-03T06:39:46;15.50;99.90
66710;DHT22;53624;0.000;0.000;2022-11-03T06:42:13;15.50;99.90
66710;DHT22;53624;0.000;0.000;2022-11-03T06:44:41;15.50;99.90
66710;DHT22;53624;0.000;0.000;2022-11-03T06:47:17;15.50;99.90
66710;DHT22;53624;0.000;0.000;2022-11-03T06:49:47;15.50;99.90
66710;DHT22;53624;0.000;0.000;2022-11-03T06:52:27;15.50;99.90
66710;DHT22;53624;0.000;0.000;2022-11-03T06:54:58;15.60;99.90
66710;DHT22;53624;0.000;0.000;2022-11-03T06:57:26;15.60;99.90
66710;DHT22;53624;0.000;0.000;2022-11-03T06:59:56;15.60;99.90
66710;DHT22;53624;0.000;0.000;2022-11-03T07:02:31;15.60;99.90
66710;DHT22;53624;0.000;0.000;2022-11-03T07:05:05;15.60;99.90
66710;DHT22;53624;0.000;0.000;2022-11-03T07:07:32;15.60;99.90
66710;DHT22;53624;0.000;0.000;2022-11-03T07:10:00;15.70;99.90
66710;DHT22;53624;0.000;0.000;2022-11-03T07:12:27;15.70;99.90
66710;DHT22;53624;0.000;0.000;2022-11-03T07:14:55;15.70;99.90
66710;DHT22;53624;0.000;0.000;2022-11-03T07:17:24;15.70;99.90
66710;DHT22;53624;0.000;0.000;2022-11-03T07:19:53;15.70;99.90
66710;DHT22;53624;0.000;0.000;2022-11-03T07:22:20;15.70;99.90
66710;DHT22;53624;0.000;0.000;2022-11-03T07:24:49;15.70;99.90
66710;DHT22;53624;0.000;0.000;2022-11-03T07:27:19;15.80;99.90
66710;DHT22;53624;0.000;0.000;2022-11-03T07:29:47;15.80;99.90
66710;DHT22;53624;0.000;0.000;2022-11-03T07:32:16;15.80;99.90
66710;DHT22;53624;0.000;0.000;2022-11-03T07:34:44;15.80;99.90
66710;DHT22;53624;0.000;0.000;2022-11-03T07:37:15;15.80;99.90
66710;DHT22;53624;0.000;0.000;2022-11-03T07:39:44;15.90;99.90
66710;DHT22;53624;0.000;0.000;2022-11-03T07:42:12;16.00;99.90
66710;DHT22;53624;0.000;0.000;2022-11-03T07:44:41;16.00;99.90
66710;DHT22;53624;0.000;0.000;2022-11-03T07:47:10;16.10;99.90
66710;DHT22;53624;0.000;0.000;2022-11-03T07:49:38;16.20;99.90
66710;DHT22;53624;0.000;0.000;2022-11-03T07:52:07;16.20;99.90
66710;DHT22;53624;0.000;0.000;2022-11-03T07:54:36;16.20;99.90
66710;DHT22;53624;0.000;0.000;2022-11-03T07:57:04;16.30;99.90
66710;DHT22;53624;0.000;0.000;2022-11-03T07:59:34;16.30;99.90
66710;DHT22;53624;0.000;0.000;2022-11-03T08:02:05;16.30;99.90
66710;DHT22;53624;0.000;0.000;2022-11-03T08:04:40;16.20;99.90
66710;DHT22;53624;0.000;0.000;2022-11-03T08:07:08;16.30;99.90
66710;DHT22;53624;0.000;0.000;2022-11-03T08:09:37;16.30;99.90
66710;DHT22;53624;0.000;0.000;2022-11-03T08:12:04;16.40;99.90
66710;DHT22;53624;0.000;0.000;2022-11-03T08:14:32;16.40;99.90
66710;DHT22;53624;0.000;0.000;2022-11-03T08:17:00;16.40;99.90
66710;DHT22;53624;0.000;0.000;2022-11-03T08:19:27;16.50;99.90
66710;DHT22;53624;0.000;0.000;2022-11-03T08:21:55;16.50;99.90
66710;DHT22;53624;0.000;0.000;2022-11-03T08:24:23;16.50;99.90
66710;DHT22;53624;0.000;0.000;2022-11-03T08:26:52;16.50;99.90
66710;DHT22;53624;0.000;0.000;2022-11-03T08:29:19;16.50;99.90
66710;DHT22;53624;0.000;0.000;2022-11-03T08:31:46;16.50;99.90
66710;DHT22;53624;0.000;0.000;2022-11-03T08:34:14;16.50;99.90
66710;DHT22;53624;0.000;0.000;2022-11-03T08:36:41;16.60;99.90
66710;DHT22;53624;0.000;0.000;2022-11-03T08:39:09;16.60;99.90
66710;DHT22;53624;0.000;0.000;2022-11-03T08:41:36;16.60;99.90
66710;DHT22;53624;0.000;0.000;2022-11-03T08:44:05;16.70;99.90
66710;DHT22;53624;0.000;0.000;2022-11-03T08:46:33;16.70;99.90
66710;DHT22;53624;0.000;0.000;2022-11-03T08:49:00;16.80;99.90
66710;DHT22;53624;0.000;0.000;2022-11-03T08:51:28;16.90;99.90
66710;DHT22;53624;0.000;0.000;2022-11-03T08:53:55;16.90;99.90
66710;DHT22;53624;0.000;0.000;2022-11-03T08:56:23;17.00;99.90
66710;DHT22;53624;0.000;0.000;2022-11-03T08:58:50;17.00;99.90
66710;DHT22;53624;0.000;0.000;2022-11-03T09:01:19;17.10;99.90
66710;DHT22;53624;0.000;0.000;2022-11-03T09:03:46;17.10;99.90
66710;DHT22;53624;0.000;0.000;2022-11-03T09:06:14;17.10;99.90
66710;DHT22;53624;0.000;0.000;2022-11-03T09:08:41;17.10;99.90
66710;DHT22;53624;0.000;0.000;2022-11-03T09:11:08;17.10;99.90
66710;DHT22;53624;0.000;0.000;2022-11-03T09:13:36;17.10;99.90
66710;DHT22;53624;0.000;0.000;2022-11-03T09:16:04;17.10;99.90
66710;DHT22;53624;0.000;0.000;2022-11-03T09:18:32;17.10;99.90
66710;DHT22;53624;0.000;0.000;2022-11-03T09:21:00;17.20;99.90
66710;DHT22;53624;0.000;0.000;2022-11-03T09:23:27;17.20;99.90
66710;DHT22;53624;0.000;0.000;2022-11-03T09:25:55;17.30;99.90
66710;DHT22;53624;0.000;0.000;2022-11-03T09:28:22;17.30;99.90
66710;DHT22;53624;0.000;0.000;2022-11-03T09:30:50;17.30;99.90
66710;DHT22;53624;0.000;0.000;2022-11-03T09:33:17;17.40;99.90
66710;DHT22;53624;0.000;0.000;2022-11-03T09:35:46;17.30;99.90
66710;DHT22;53624;0.000;0.000;2022-11-03T09:38:13;17.40;99.90
66710;DHT22;53624;0.000;0.000;2022-11-03T09:40:41;17.40;99.90
66710;DHT22;53624;0.000;0.000;2022-11-03T09:43:08;17.40;99.90
66710;DHT22;53624;0.000;0.000;2022-11-03T09:45:36;17.50;99.90
66710;DHT22;53624;0.000;0.000;2022-11-03T09:48:04;17.50;99.90
66710;DHT22;53624;0.000;0.000;2022-11-03T09:50:35;17.50;99.90
66710;DHT22;53624;0.000;0.000;2022-11-03T09:53:04;17.60;99.90
66710;DHT22;53624;0.000;0.000;2022-11-03T09:55:32;17.60;99.90
66710;DHT22;53624;0.000;0.000;2022-11-03T09:58:00;17.60;99.90
66710;DHT22;53624;0.000;0.000;2022-11-03T10:00:27;17.60;99.90
66710;DHT22;53624;0.000;0.000;2022-11-03T10:02:55;17.60;99.90
66710;DHT22;53624;0.000;0.000;2022-11-03T10:05:23;17.60;99.90
66710;DHT22;53624;0.000;0.000;2022-11-03T10:07:51;17.60;99.90
66710;DHT22;53624;0.000;0.000;2022-11-03T10:10:20;17.60;99.90
66710;DHT22;53624;0.000;0.000;2022-11-03T10:12:48;17.60;99.90
66710;DHT22;53624;0.000;0.000;2022-11-03T10:15:17;17.60;99.90
66710;DHT22;53624;0.000;0.000;2022-11-03T10:17:45;17.50;99.90
66710;DHT22;53624;0.000;0.000;2022-11-03T10:20:13;17.50;99.90
66710;DHT22;53624;0.000;0.000;2022-11-03T10:22:41;17.50;99.90
66710;DHT22;53624;0.000;0.000;2022-11-03T10:25:28;17.50;99.90
66710;DHT22;53624;0.000;0.000;2022-11-03T10:28:15;17.50;99.90
66710;DHT22;53624;0.000;0.000;2022-11-03T10:30:54;17.50;99.90
66710;DHT22;53624;0.000;0.000;2022-11-03T10:33:29;17.50;99.90
66710;DHT22;53624;0.000;0.000;2022-11-03T10:35:57;17.50;99.90
66710;DHT22;53624;0.000;0.000;2022-11-03T10:38:26;17.40;99.90
66710;DHT22;53624;0.000;0.000;2022-11-03T10:40:56;17.40;99.90
66710;DHT22;53624;0.000;0.000;2022-11-03T10:43:35;17.40;99.90
66710;DHT22;53624;0.000;0.000;2022-11-03T10:46:09;17.40;99.90
66710;DHT22;53624;0.000;0.000;2022-11-03T10:48:37;17.40;99.90
66710;DHT22;53624;0.000;0.000;2022-11-03T10:51:07;17.40;99.90
66710;DHT22;53624;0.000;0.000;2022-11-03T10:53:35;17.40;99.90
66710;DHT22;53624;0.000;0.000;2022-11-03T10:56:04;17.30;99.90
66710;DHT22;53624;0.000;0.000;2022-11-03T10:58:32;17.40;99.90
66710;DHT22;53624;0.000;0.000;2022-11-03T11:01:00;17.30;99.90
66710;DHT22;53624;0.000;0.000;2022-11-03T11:03:27;17.30;99.90
66710;DHT22;53624;0.000;0.000;2022-11-03T11:05:55;17.30;99.90
66710;DHT22;53624;0.000;0.000;2022-11-03T11:08:23;17.30;99.90
66710;DHT22;53624;0.000;0.000;2022-11-03T11:10:50;17.30;99.90
66710;DHT22;53624;0.000;0.000;2022-11-03T11:13:28;17.30;99.90
66710;DHT22;53624;0.000;0.000;2022-11-03T11:15:56;17.30;99.90
66710;DHT22;53624;0.000;0.000;2022-11-03T11:23:51;17.20;99.90
66710;DHT22;53624;0.000;0.000;2022-11-03T11:26:29;17.20;99.90
66710;DHT22;53624;0.000;0.000;2022-11-03T11:31:50;17.10;99.90
66710;DHT22;53624;0.000;0.000;2022-11-03T11:39:45;17.00;99.90
66710;DHT22;53624;0.000;0.000;2022-11-03T11:42:13;17.00;99.90
66710;DHT22;53624;0.000;0.000;2022-11-03T11:44:48;17.00;99.90
66710;DHT22;53624;0.000;0.000;2022-11-03T11:47:26;17.00;99.90
66710;DHT22;53624;0.000;0.000;2022-11-03T11:52:55;17.00;99.90
66710;DHT22;53624;0.000;0.000;2022-11-03T11:55:30;16.90;99.90
66710;DHT22;53624;0.000;0.000;2022-11-03T11:57:59;16.90;99.90
66710;DHT22;53624;0.000;0.000;2022-11-03T12:00:28;16.90;99.90
66710;DHT22;53624;0.000;0.000;2022-11-03T12:02:57;16.90;99.90
66710;DHT22;53624;0.000;0.000;2022-11-03T12:05:27;16.90;99.90
66710;DHT22;53624;0.000;0.000;2022-11-03T12:07:55;16.90;99.90
66710;DHT22;53624;0.000;0.000;2022-11-03T12:10:22;16.80;99.90
66710;DHT22;53624;0.000;0.000;2022-11-03T12:12:51;16.80;99.90
66710;DHT22;53624;0.000;0.000;2022-11-03T12:20:48;16.80;99.90
66710;DHT22;53624;0.000;0.000;2022-11-03T12:23:30;16.80;99.90
66710;DHT22;53624;0.000;0.000;2022-11-03T12:25:58;16.80;99.90
66710;DHT22;53624;0.000;0.000;2022-11-03T12:28:29;16.80;99.90
66710;DHT22;53624;0.000;0.000;2022-11-03T12:30:57;16.70;99.90
66710;DHT22;53624;0.000;0.000;2022-11-03T12:33:25;16.70;99.90
66710;DHT22;53624;0.000;0.000;2022-11-03T12:35:54;16.70;99.90
66710;DHT22;53624;0.000;0.000;2022-11-03T12:38:21;16.70;99.90
66710;DHT22;53624;0.000;0.000;2022-11-03T12:40:49;16.70;99.90
66710;DHT22;53624;0.000;0.000;2022-11-03T12:43:18;16.70;99.90
66710;DHT22;53624;0.000;0.000;2022-11-03T12:45:45;16.70;99.90
66710;DHT22;53624;0.000;0.000;2022-11-03T12:48:13;16.70;99.90
66710;DHT22;53624;0.000;0.000;2022-11-03T12:50:40;16.70;99.90
66710;DHT22;53624;0.000;0.000;2022-11-03T12:53:09;16.70;99.90
66710;DHT22;53624;0.000;0.000;2022-11-03T12:55:36;16.70;99.90
66710;DHT22;53624;0.000;0.000;2022-11-03T12:58:04;16.70;99.90
66710;DHT22;53624;0.000;0.000;2022-11-03T13:00:31;16.70;99.90
66710;DHT22;53624;0.000;0.000;2022-11-03T13:02:59;16.70;99.90
66710;DHT22;53624;0.000;0.000;2022-11-03T13:05:26;16.70;99.90
66710;DHT22;53624;0.000;0.000;2022-11-03T13:07:54;16.60;99.90
66710;DHT22;53624;0.000;0.000;2022-11-03T13:10:22;16.60;99.90
66710;DHT22;53624;0.000;0.000;2022-11-03T13:12:50;16.60;99.90
66710;DHT22;53624;0.000;0.000;2022-11-03T13:15:17;16.70;99.90
66710;DHT22;53624;0.000;0.000;2022-11-03T13:17:45;16.70;99.90
66710;DHT22;53624;0.000;0.000;2022-11-03T13:20:12;16.70;99.90
66710;DHT22;53624;0.000;0.000;2022-11-03T13:22:41;16.70;99.90
66710;DHT22;53624;0.000;0.000;2022-11-03T13:25:08;16.70;99.90
66710;DHT22;53624;0.000;0.000;2022-11-03T13:27:37;16.70;99.90
66710;DHT22;53624;0.000;0.000;2022-11-03T13:30:05;16.70;99.90
66710;DHT22;53624;0.000;0.000;2022-11-03T13:32:33;16.70;99.90
66710;DHT22;53624;0.000;0.000;2022-11-03T13:35:00;16.70;99.90
66710;DHT22;53624;0.000;0.000;2022-11-03T13:37:28;16.70;99.90
66710;DHT22;53624;0.000;0.000;2022-11-03T13:39:55;16.70;99.90
66710;DHT22;53624;0.000;0.000;2022-11-03T13:42:22;16.70;99.90
66710;DHT22;53624;0.000;0.000;2022-11-03T13:44:51;16.70;99.90
66710;DHT22;53624;0.000;0.000;2022-11-03T13:47:19;16.60;99.90
66710;DHT22;53624;0.000;0.000;2022-11-03T13:49:55;16.60;99.90
66710;DHT22;53624;0.000;0.000;2022-11-03T13:52:22;16.60;99.90
66710;DHT22;53624;0.000;0.000;2022-11-03T13:54:50;16.60;99.90
66710;DHT22;53624;0.000;0.000;2022-11-03T13:57:17;16.60;99.90
66710;DHT22;53624;0.000;0.000;2022-11-03T13:59:45;16.60;99.90
66710;DHT22;53624;0.000;0.000;2022-11-03T14:02:12;16.60;99.90
66710;DHT22;53624;0.000;0.000;2022-11-03T14:04:40;16.70;99.90
66710;DHT22;53624;0.000;0.000;2022-11-03T14:07:09;16.60;99.90
66710;DHT22;53624;0.000;0.000;2022-11-03T14:09:36;16.60;99.90
66710;DHT22;53624;0.000;0.000;2022-11-03T14:12:03;16.70;99.90
66710;DHT22;53624;0.000;0.000;2022-11-03T14:14:49;16.70;99.90
66710;DHT22;53624;0.000;0.000;2022-11-03T14:17:16;16.70;99.90
66710;DHT22;53624;0.000;0.000;2022-11-03T14:19:43;16.60;99.90
66710;DHT22;53624;0.000;0.000;2022-11-03T14:22:12;16.60;99.90
66710;DHT22;53624;0.000;0.000;2022-11-03T14:24:40;16.60;99.90
66710;DHT22;53624;0.000;0.000;2022-11-03T14:27:07;16.70;99.90
66710;DHT22;53624;0.000;0.000;2022-11-03T14:29:34;16.70;99.90
66710;DHT22;53624;0.000;0.000;2022-11-03T14:32:02;16.70;99.90
66710;DHT22;53624;0.000;0.000;2022-11-03T14:34:30;16.70;99.90
66710;DHT22;53624;0.000;0.000;2022-11-03T14:36:57;16.70;99.90
66710;DHT22;53624;0.000;0.000;2022-11-03T14:39:26;16.60;99.90
66710;DHT22;53624;0.000;0.000;2022-11-03T14:41:53;16.60;99.90
66710;DHT22;53624;0.000;0.000;2022-11-03T14:44:29;16.60;99.90
66710;DHT22;53624;0.000;0.000;2022-11-03T14:46:56;16.60;99.90
66710;DHT22;53624;0.000;0.000;2022-11-03T14:49:24;16.60;99.90
66710;DHT22;53624;0.000;0.000;2022-11-03T14:51:51;16.60;99.90
66710;DHT22;53624;0.000;0.000;2022-11-03T14:54:19;16.60;99.90
66710;DHT22;53624;0.000;0.000;2022-11-03T14:56:47;16.60;99.90
66710;DHT22;53624;0.000;0.000;2022-11-03T14:59:15;16.60;99.90
66710;DHT22;53624;0.000;0.000;2022-11-03T15:01:42;16.60;99.90
66710;DHT22;53624;0.000;0.000;2022-11-03T15:04:10;16.60;99.90
66710;DHT22;53624;0.000;0.000;2022-11-03T15:06:38;16.50;99.90
66710;DHT22;53624;0.000;0.000;2022-11-03T15:09:05;16.50;99.90
66710;DHT22;53624;0.000;0.000;2022-11-03T15:11:33;16.50;99.90
66710;DHT22;53624;0.000;0.000;2022-11-03T15:14:01;16.50;99.90
66710;DHT22;53624;0.000;0.000;2022-11-03T15:16:29;16.50;99.90
66710;DHT22;53624;0.000;0.000;2022-11-03T15:18:56;16.50;99.90
66710;DHT22;53624;0.000;0.000;2022-11-03T15:21:24;16.60;99.90
66710;DHT22;53624;0.000;0.000;2022-11-03T15:23:51;16.50;99.90
66710;DHT22;53624;0.000;0.000;2022-11-03T15:26:19;16.50;99.90
66710;DHT22;53624;0.000;0.000;2022-11-03T15:28:46;16.50;99.90
66710;DHT22;53624;0.000;0.000;2022-11-03T15:31:15;16.50;99.90
66710;DHT22;53624;0.000;0.000;2022-11-03T15:33:43;16.50;99.90
66710;DHT22;53624;0.000;0.000;2022-11-03T15:36:10;16.50;99.90
66710;DHT22;53624;0.000;0.000;2022-11-03T15:38:37;16.50;99.90
66710;DHT22;53624;0.000;0.000;2022-11-03T15:41:05;16.50;99.90
66710;DHT22;53624;0.000;0.000;2022-11-03T15:43:41;16.50;99.90
66710;DHT22;53624;0.000;0.000;2022-11-03T15:46:10;16.40;99.90
66710;DHT22;53624;0.000;0.000;2022-11-03T15:48:39;16.50;99.90
66710;DHT22;53624;0.000;0.000;2022-11-03T15:51:07;16.50;99.90
66710;DHT22;53624;0.000;0.000;2022-11-03T15:53:34;16.50;99.90
66710;DHT22;53624;0.000;0.000;2022-11-03T15:56:02;16.40;99.90
66710;DHT22;53624;0.000;0.000;2022-11-03T15:58:29;16.40;99.90
66710;DHT22;53624;0.000;0.000;2022-11-03T16:00:59;16.40;99.90
66710;DHT22;53624;0.000;0.000;2022-11-03T16:03:27;16.40;99.90
66710;DHT22;53624;0.000;0.000;2022-11-03T16:05:56;16.40;99.90
66710;DHT22;53624;0.000;0.000;2022-11-03T16:08:23;16.40;99.90
66710;DHT22;53624;0.000;0.000;2022-11-03T16:10:51;16.40;99.90
66710;DHT22;53624;0.000;0.000;2022-11-03T16:13:18;16.40;99.90
66710;DHT22;53624;0.000;0.000;2022-11-03T16:15:46;16.30;99.90
66710;DHT22;53624;0.000;0.000;2022-11-03T16:18:13;16.30;99.90
66710;DHT22;53624;0.000;0.000;2022-11-03T16:20:40;16.30;99.90